Time;durP1;ratioP1;P1;durP2;ratioP2;P2;SDS_P1;SDS_P2;PMS_P1;PMS_P2;Temp;Humidity;BMP_temperature;BMP_pressure;BME280_temperature;BME280_humidity;BME280_pressure;Samples;Min_cycle;Max_cycle;Signal;HPM_P1;HPM_P2
2022/11/21 00:01:22;;;;;;;26.13;16.40;;;0.00;99.90;;;;;;5106208;28;20449;-65
2022/11/21 00:03:50;;;;;;;26.70;16.10;;;0.00;99.90;;;;;;5105780;28;20457;-66
2022/11/21 00:06:17;;;;;;;29.53;16.57;;;0.00;99.90;;;;;;5106710;28;20454;-66
2022/11/21 00:08:44;;;;;;;23.50;17.00;;;-0.10;99.90;;;;;;5107741;28;20500;-64
2022/11/21 00:11:11;;;;;;;25.10;16.77;;;-0.10;99.90;;;;;;5107560;28;20481;-66
2022/11/21 00:13:39;;;;;;;24.17;16.30;;;-0.10;99.90;;;;;;5107477;28;20481;-66
2022/11/21 00:16:07;;;;;;;32.33;18.00;;;-0.10;99.90;;;;;;5108069;28;20492;-66
2022/11/21 00:18:36;;;;;;;25.67;16.70;;;0.00;99.90;;;;;;5107441;28;20563;-66
2022/11/21 00:21:06;;;;;;;28.07;17.30;;;-0.10;99.90;;;;;;5107113;28;20472;-66
2022/11/21 00:23:33;;;;;;;27.73;16.33;;;-0.10;99.90;;;;;;5106099;28;20446;-66
2022/11/21 00:26:05;;;;;;;27.03;16.57;;;-0.10;99.90;;;;;;5105540;28;20512;-66
2022/11/21 00:28:32;;;;;;;25.70;16.70;;;0.00;99.90;;;;;;5106236;28;20434;-66
2022/11/21 00:30:59;;;;;;;24.63;18.00;;;0.00;99.90;;;;;;5104046;28;20614;-66
2022/11/21 00:33:25;;;;;;;27.03;16.57;;;0.10;99.90;;;;;;5104361;28;20464;-67
2022/11/21 00:35:54;;;;;;;25.40;16.60;;;0.10;99.90;;;;;;5105590;28;20479;-67
2022/11/21 00:38:23;;;;;;;24.23;16.10;;;0.10;99.90;;;;;;5105750;28;20453;-66
2022/11/21 00:40:50;;;;;;;24.90;15.80;;;0.10;99.90;;;;;;5105585;28;20453;-66
2022/11/21 00:43:17;;;;;;;25.00;16.30;;;0.20;99.90;;;;;;5105693;28;20481;-66
2022/11/21 00:45:44;;;;;;;26.90;16.53;;;0.30;99.90;;;;;;5105592;28;20453;-67
2022/11/21 00:48:11;;;;;;;26.20;16.50;;;0.30;99.90;;;;;;5105988;28;20513;-66
2022/11/21 00:50:37;;;;;;;24.23;15.97;;;0.30;99.90;;;;;;5102295;28;20856;-67
2022/11/21 00:53:06;;;;;;;23.83;15.80;;;0.30;99.90;;;;;;5103441;28;20504;-66
2022/11/21 00:55:33;;;;;;;24.60;15.57;;;0.40;99.90;;;;;;5104807;28;20457;-65
2022/11/21 00:58:00;;;;;;;22.70;15.50;;;0.40;99.90;;;;;;5104059;28;20484;-66
2022/11/21 01:00:26;;;;;;;25.17;16.57;;;0.40;99.90;;;;;;5104355;28;20838;-66
2022/11/21 01:02:53;;;;;;;26.50;17.80;;;0.50;99.90;;;;;;5104557;28;20445;-66
2022/11/21 01:05:20;;;;;;;22.33;14.97;;;0.50;99.90;;;;;;5105105;28;20458;-66
2022/11/21 01:07:48;;;;;;;25.03;15.67;;;0.50;99.90;;;;;;5104542;28;20461;-66
2022/11/21 01:10:17;;;;;;;22.87;15.87;;;0.50;99.90;;;;;;5104673;28;20488;-67
2022/11/21 01:12:44;;;;;;;23.20;15.77;;;0.60;99.90;;;;;;5104440;28;20477;-65
2022/11/21 01:15:11;;;;;;;24.07;15.27;;;0.50;99.90;;;;;;5104436;28;20490;-67
2022/11/21 01:17:38;;;;;;;24.60;15.73;;;0.60;99.90;;;;;;5103668;28;20488;-67
2022/11/21 01:20:06;;;;;;;24.13;15.20;;;0.60;99.90;;;;;;5104288;28;20507;-67
2022/11/21 01:22:33;;;;;;;27.10;15.73;;;0.60;99.90;;;;;;5104691;28;20544;-67
2022/11/21 01:25:00;;;;;;;22.10;15.67;;;0.70;99.90;;;;;;5103483;28;20497;-66
2022/11/21 01:27:29;;;;;;;25.60;17.00;;;0.80;99.90;;;;;;5103728;28;20514;-66
2022/11/21 01:29:55;;;;;;;20.47;14.67;;;0.80;99.90;;;;;;5101867;28;20579;-67
2022/11/21 01:32:22;;;;;;;27.07;16.97;;;0.90;99.90;;;;;;5104151;28;20505;-65
2022/11/21 01:34:49;;;;;;;22.73;15.30;;;0.90;99.90;;;;;;5103898;28;20510;-67
2022/11/21 01:37:16;;;;;;;24.53;15.33;;;0.90;99.90;;;;;;5103752;28;20454;-66
2022/11/21 01:39:43;;;;;;;27.23;17.20;;;0.90;99.90;;;;;;5104774;28;20507;-67
2022/11/21 01:42:13;;;;;;;24.23;16.23;;;0.80;99.90;;;;;;5104669;28;20445;-66
2022/11/21 01:44:50;;;;;;;23.53;14.90;;;0.70;99.90;;;;;;5104226;28;20502;-66
2022/11/21 01:47:17;;;;;;;24.40;16.83;;;0.70;99.90;;;;;;5103513;28;20445;-67
2022/11/21 01:49:46;;;;;;;25.27;15.20;;;0.70;99.90;;;;;;5103485;28;20786;-66
2022/11/21 01:52:18;;;;;;;23.97;16.23;;;0.70;99.90;;;;;;5104182;28;20478;-69
2022/11/21 01:54:49;;;;;;;28.47;17.83;;;0.70;99.90;;;;;;5104191;28;20635;-67
2022/11/21 01:57:20;;;;;;;26.10;16.27;;;0.80;99.90;;;;;;5103880;28;20460;-67
2022/11/21 01:59:53;;;;;;;23.73;15.90;;;0.70;99.90;;;;;;5103731;28;20438;-66
2022/11/21 02:02:24;;;;;;;25.13;16.67;;;0.70;99.90;;;;;;5104122;28;20442;-67
2022/11/21 02:04:53;;;;;;;28.70;18.37;;;0.80;99.90;;;;;;5103760;28;20495;-65
2022/11/21 02:07:23;;;;;;;26.30;17.20;;;0.80;99.90;;;;;;5103408;28;20488;-65
2022/11/21 02:09:54;;;;;;;28.40;17.90;;;0.80;99.90;;;;;;5104184;28;20449;-66
2022/11/21 02:12:24;;;;;;;25.10;16.40;;;0.70;99.90;;;;;;5106783;28;20457;-66
2022/11/21 02:14:54;;;;;;;25.60;16.23;;;0.80;99.90;;;;;;5107028;28;20502;-65
2022/11/21 02:17:21;;;;;;;23.80;15.90;;;0.80;99.90;;;;;;5106512;28;20536;-65
2022/11/21 02:19:54;;;;;;;29.60;17.47;;;0.90;99.90;;;;;;5107388;28;20755;-66
2022/11/21 02:22:29;;;;;;;27.33;17.43;;;0.90;99.90;;;;;;5107077;28;20437;-66
2022/11/21 02:25:01;;;;;;;29.10;18.10;;;0.90;99.90;;;;;;5106301;28;20437;-66
2022/11/21 02:27:28;;;;;;;23.83;16.07;;;0.90;99.90;;;;;;5106679;28;20526;-66
2022/11/21 02:29:56;;;;;;;23.67;15.73;;;1.00;99.90;;;;;;5106124;28;20493;-64
2022/11/21 02:32:23;;;;;;;29.80;16.83;;;1.00;99.90;;;;;;5106737;28;20960;-66
2022/11/21 02:34:51;;;;;;;23.90;15.43;;;1.10;99.90;;;;;;5106095;28;20489;-66
2022/11/21 02:37:18;;;;;;;25.10;15.40;;;1.20;99.90;;;;;;5107015;28;20461;-67
2022/11/21 02:39:47;;;;;;;25.10;17.30;;;1.20;99.90;;;;;;5106622;28;20477;-66
2022/11/21 02:42:23;;;;;;;24.17;15.50;;;1.20;99.90;;;;;;5107091;28;20929;-66
2022/11/21 02:44:57;;;;;;;26.33;16.57;;;1.20;99.90;;;;;;5107437;28;20484;-66
2022/11/21 02:47:25;;;;;;;26.60;16.53;;;1.10;99.90;;;;;;5107560;28;20438;-66
2022/11/21 02:50:00;;;;;;;26.70;17.70;;;1.10;99.90;;;;;;5106628;28;20492;-66
2022/11/21 02:52:26;;;;;;;25.93;15.33;;;1.10;99.90;;;;;;5107612;28;20475;-66
2022/11/21 02:54:53;;;;;;;25.47;16.07;;;1.10;99.90;;;;;;5106934;28;20461;-65
2022/11/21 02:57:22;;;;;;;26.20;16.30;;;1.10;99.90;;;;;;5107273;28;20473;-66
2022/11/21 02:59:49;;;;;;;22.23;15.30;;;1.10;99.90;;;;;;5107043;28;20589;-67
2022/11/21 03:02:16;;;;;;;23.43;16.40;;;1.20;99.90;;;;;;5107267;28;20477;-65
2022/11/21 03:04:42;;;;;;;25.83;17.30;;;1.20;99.90;;;;;;5107269;28;20508;-66
2022/11/21 03:07:09;;;;;;;25.83;16.20;;;1.20;99.90;;;;;;5107100;28;20453;-66
2022/11/21 03:09:36;;;;;;;26.70;17.10;;;1.20;99.90;;;;;;5107352;28;20874;-66
2022/11/21 03:12:07;;;;;;;23.20;15.97;;;1.20;99.90;;;;;;5106831;28;20875;-67
2022/11/21 03:14:35;;;;;;;24.83;16.90;;;1.20;99.90;;;;;;5106886;28;20437;-67
2022/11/21 03:17:03;;;;;;;30.23;16.80;;;1.30;99.90;;;;;;5106366;28;20492;-66
2022/11/21 03:19:30;;;;;;;26.50;17.37;;;1.30;99.90;;;;;;5106374;28;20496;-66
2022/11/21 03:21:57;;;;;;;22.63;15.83;;;1.20;99.90;;;;;;5106677;28;20453;-67
2022/11/21 03:24:24;;;;;;;23.87;16.57;;;1.20;99.90;;;;;;5105944;28;20486;-65
2022/11/21 03:26:51;;;;;;;24.90;16.70;;;1.30;99.90;;;;;;5105203;28;20480;-66
2022/11/21 03:29:18;;;;;;;24.13;16.80;;;1.30;99.90;;;;;;5105810;28;20831;-66
2022/11/21 03:31:48;;;;;;;26.37;16.07;;;1.30;99.90;;;;;;5105218;28;20794;-65
2022/11/21 03:34:14;;;;;;;28.60;17.57;;;1.30;99.90;;;;;;5105253;28;20782;-67
2022/11/21 03:36:41;;;;;;;22.47;16.33;;;1.20;99.90;;;;;;5105050;28;20450;-66
2022/11/21 03:39:09;;;;;;;25.03;16.53;;;1.20;99.90;;;;;;5105557;28;20496;-66
2022/11/21 03:41:36;;;;;;;27.87;15.87;;;1.20;99.90;;;;;;5105697;28;20516;-66
2022/11/21 03:44:06;;;;;;;23.53;15.20;;;1.20;99.90;;;;;;5105578;28;20909;-66
2022/11/21 03:46:35;;;;;;;22.80;16.20;;;1.20;99.90;;;;;;5104821;28;20453;-66
2022/11/21 03:49:03;;;;;;;22.63;15.20;;;1.20;99.90;;;;;;5104741;28;20982;-65
2022/11/21 03:51:30;;;;;;;25.80;16.47;;;1.20;99.90;;;;;;5105384;28;20488;-67
2022/11/21 03:53:58;;;;;;;26.37;15.93;;;1.10;99.90;;;;;;5104765;28;20453;-66
2022/11/21 03:56:26;;;;;;;26.37;16.90;;;1.10;99.90;;;;;;5105025;28;20449;-65
2022/11/21 03:58:53;;;;;;;25.00;16.67;;;1.10;99.90;;;;;;5104958;28;20469;-66
2022/11/21 04:01:20;;;;;;;24.57;15.93;;;1.00;99.90;;;;;;5104853;28;20450;-66
2022/11/21 04:03:47;;;;;;;26.67;16.20;;;0.90;99.90;;;;;;5104321;28;20450;-66
2022/11/21 04:06:17;;;;;;;31.20;18.53;;;0.90;99.90;;;;;;5104852;28;20491;-66
2022/11/21 04:08:44;;;;;;;27.60;17.83;;;0.90;99.90;;;;;;5104624;28;20461;-66
2022/11/21 04:11:11;;;;;;;26.53;17.70;;;1.00;99.90;;;;;;5104876;28;20464;-66
2022/11/21 04:13:39;;;;;;;24.70;16.90;;;1.00;99.90;;;;;;5104324;28;20523;-65
2022/11/21 04:16:06;;;;;;;24.07;16.50;;;1.00;99.90;;;;;;5104564;28;20462;-67
2022/11/21 04:18:34;;;;;;;30.53;18.40;;;1.00;99.90;;;;;;5103841;28;20514;-66
2022/11/21 04:21:03;;;;;;;26.07;18.00;;;1.10;99.90;;;;;;5103898;28;20929;-66
2022/11/21 04:23:32;;;;;;;26.03;17.63;;;1.10;99.90;;;;;;5104598;28;20960;-65
2022/11/21 04:26:00;;;;;;;26.23;18.00;;;1.10;99.90;;;;;;5103411;28;20802;-66
2022/11/21 04:28:27;;;;;;;26.40;16.70;;;1.10;99.90;;;;;;5104656;28;20526;-66
2022/11/21 04:30:54;;;;;;;26.60;17.27;;;1.10;99.90;;;;;;5104769;28;20483;-66
2022/11/21 04:33:21;;;;;;;27.30;17.17;;;1.10;99.90;;;;;;5103479;28;20477;-66
2022/11/21 04:35:48;;;;;;;23.97;16.30;;;1.10;99.90;;;;;;5104210;28;20461;-66
2022/11/21 04:38:15;;;;;;;24.53;15.43;;;1.10;99.90;;;;;;5103505;28;20778;-66
2022/11/21 04:40:45;;;;;;;26.43;17.00;;;1.20;99.90;;;;;;5104346;28;20488;-66
2022/11/21 04:43:12;;;;;;;27.63;16.90;;;1.20;99.90;;;;;;5104421;28;20470;-66
2022/11/21 04:45:38;;;;;;;26.87;16.17;;;1.20;99.90;;;;;;5103856;28;20457;-65
2022/11/21 04:48:06;;;;;;;25.30;16.40;;;1.20;99.90;;;;;;5102946;28;20482;-65
2022/11/21 04:50:33;;;;;;;25.70;16.10;;;1.20;99.90;;;;;;5101203;28;20782;-66
2022/11/21 04:53:00;;;;;;;28.13;17.37;;;1.20;99.90;;;;;;5102089;28;20501;-67
2022/11/21 04:55:29;;;;;;;26.43;17.07;;;1.20;99.90;;;;;;5103115;28;20461;-66
2022/11/21 04:57:58;;;;;;;25.70;16.00;;;1.20;99.90;;;;;;5103847;28;20554;-66
2022/11/21 05:00:25;;;;;;;24.60;16.63;;;1.10;99.90;;;;;;5103666;28;20534;-67
2022/11/21 05:02:52;;;;;;;27.57;17.07;;;1.10;99.90;;;;;;5104291;28;20488;-66
2022/11/21 05:05:19;;;;;;;27.67;17.30;;;1.20;99.90;;;;;;5104352;28;20491;-66
2022/11/21 05:07:46;;;;;;;25.70;17.30;;;1.20;99.90;;;;;;5104367;28;20906;-67
2022/11/21 05:10:13;;;;;;;29.33;18.77;;;1.20;99.90;;;;;;5103472;28;20490;-67
2022/11/21 05:15:25;;;;;;;31.00;19.33;;;1.30;99.90;;;;;;5104574;28;20451;-66
2022/11/21 05:17:52;;;;;;;28.50;16.40;;;1.30;99.90;;;;;;5104636;28;20488;-66
2022/11/21 05:20:19;;;;;;;28.33;18.93;;;1.30;99.90;;;;;;5103979;28;20477;-66
2022/11/21 05:22:51;;;;;;;23.80;17.20;;;1.30;99.90;;;;;;5103583;28;20839;-66
2022/11/21 05:25:18;;;;;;;23.77;17.67;;;1.30;99.90;;;;;;5103689;28;20813;-65
2022/11/21 05:27:45;;;;;;;26.00;17.37;;;1.30;99.90;;;;;;5103469;28;20495;-66
2022/11/21 05:30:12;;;;;;;28.53;17.10;;;1.30;99.90;;;;;;5103114;28;20968;-67
2022/11/21 05:32:41;;;;;;;27.47;18.03;;;1.40;99.90;;;;;;5103004;28;20508;-66
2022/11/21 05:35:08;;;;;;;30.93;19.03;;;1.40;99.90;;;;;;5103068;28;20940;-66
2022/11/21 05:37:35;;;;;;;28.83;18.47;;;1.40;99.90;;;;;;5103299;28;20484;-66
2022/11/21 05:40:02;;;;;;;26.40;17.57;;;1.40;99.90;;;;;;5104440;28;20453;-66
2022/11/21 05:45:13;;;;;;;27.17;17.80;;;1.30;99.90;;;;;;5102093;28;20424;-67
2022/11/21 05:47:42;;;;;;;23.87;17.10;;;1.30;99.90;;;;;;5102654;28;20554;-66
2022/11/21 05:50:10;;;;;;;29.53;19.40;;;1.20;99.90;;;;;;5102806;28;20453;-67
2022/11/21 05:52:36;;;;;;;27.63;17.47;;;1.20;99.90;;;;;;5102457;28;20477;-68
2022/11/21 05:55:04;;;;;;;28.90;18.90;;;1.20;99.90;;;;;;5103100;28;20496;-70
2022/11/21 05:57:31;;;;;;;27.80;16.97;;;1.20;99.90;;;;;;5103065;28;20536;-66
2022/11/21 05:59:58;;;;;;;27.30;17.43;;;1.20;99.90;;;;;;5104113;28;20473;-65
2022/11/21 06:05:10;;;;;;;29.33;16.57;;;1.20;99.90;;;;;;5102740;28;20931;-67
2022/11/21 06:07:37;;;;;;;29.37;17.50;;;1.20;99.90;;;;;;5102915;28;20801;-66
2022/11/21 06:10:05;;;;;;;24.70;16.30;;;1.20;99.90;;;;;;5102351;28;20449;-67
2022/11/21 06:12:32;;;;;;;24.77;17.60;;;1.10;99.90;;;;;;5102731;28;20850;-66
2022/11/21 06:14:59;;;;;;;32.43;19.27;;;1.10;99.90;;;;;;5102698;28;20483;-67
2022/11/21 06:17:25;;;;;;;27.10;18.37;;;1.20;99.90;;;;;;5102144;28;20479;-66
2022/11/21 06:19:52;;;;;;;28.27;18.73;;;1.10;99.90;;;;;;5102422;28;20454;-67
2022/11/21 06:22:21;;;;;;;28.43;18.63;;;1.20;99.90;;;;;;5101885;28;20475;-66
2022/11/21 06:24:48;;;;;;;29.43;18.10;;;1.10;99.90;;;;;;5101507;28;20488;-66
2022/11/21 06:27:14;;;;;;;27.33;18.57;;;1.20;99.90;;;;;;5101498;28;20471;-66
2022/11/21 06:29:41;;;;;;;27.60;17.43;;;1.10;99.90;;;;;;5101911;28;20556;-67
2022/11/21 06:32:08;;;;;;;30.53;18.80;;;1.10;99.90;;;;;;5100907;28;20544;-66
2022/11/21 06:34:35;;;;;;;25.83;16.70;;;1.20;99.90;;;;;;5100760;28;20986;-66
2022/11/21 06:37:02;;;;;;;31.20;17.83;;;1.10;99.90;;;;;;5100849;28;20839;-67
2022/11/21 06:39:30;;;;;;;27.10;18.17;;;1.20;99.90;;;;;;5101347;28;20461;-67
2022/11/21 06:41:57;;;;;;;28.80;18.20;;;1.20;99.90;;;;;;5101401;28;20449;-67
2022/11/21 06:44:24;;;;;;;26.20;17.77;;;1.20;99.90;;;;;;5100831;28;20459;-66
2022/11/21 06:46:51;;;;;;;39.43;23.30;;;1.10;99.90;;;;;;5101871;28;20489;-65
2022/11/21 06:49:18;;;;;;;31.83;18.10;;;1.20;99.90;;;;;;5101189;28;20492;-66
2022/11/21 06:51:45;;;;;;;27.03;17.80;;;1.10;99.90;;;;;;5101456;28;20484;-66
2022/11/21 06:54:12;;;;;;;32.63;18.30;;;1.10;99.90;;;;;;5103219;28;20476;-67
2022/11/21 06:56:40;;;;;;;29.20;18.00;;;1.10;99.90;;;;;;5105434;28;20449;-66
2022/11/21 06:59:07;;;;;;;28.70;17.97;;;1.10;99.90;;;;;;5105674;28;20986;-66
2022/11/21 07:01:34;;;;;;;28.20;18.10;;;1.00;99.90;;;;;;5105107;28;20488;-67
2022/11/21 07:04:01;;;;;;;30.10;19.47;;;1.00;99.90;;;;;;5106994;28;20563;-67
2022/11/21 07:06:28;;;;;;;27.63;18.27;;;0.90;99.90;;;;;;5106454;28;20487;-68
2022/11/21 07:08:55;;;;;;;29.03;18.60;;;0.80;99.90;;;;;;5105334;28;20488;-67
2022/11/21 07:11:22;;;;;;;30.83;18.40;;;0.70;99.90;;;;;;5105768;28;20510;-66
2022/11/21 07:13:49;;;;;;;28.33;19.17;;;0.70;99.90;;;;;;5104338;28;20485;-66
2022/11/21 07:16:16;;;;;;;30.77;19.37;;;0.70;99.90;;;;;;5105250;28;20959;-66
2022/11/21 07:18:44;;;;;;;35.47;20.90;;;0.60;99.90;;;;;;5105945;28;20507;-65
2022/11/21 07:21:11;;;;;;;30.10;20.50;;;0.50;99.90;;;;;;5106005;28;20488;-66
2022/11/21 07:23:38;;;;;;;29.20;19.70;;;0.40;99.90;;;;;;5105744;28;20445;-66
2022/11/21 07:26:06;;;;;;;31.90;19.23;;;0.40;99.90;;;;;;5105524;28;20477;-66
2022/11/21 07:28:34;;;;;;;30.23;18.67;;;0.40;99.90;;;;;;5105311;28;20485;-66
2022/11/21 07:31:03;;;;;;;32.83;20.90;;;0.30;99.90;;;;;;5105353;28;20458;-65
2022/11/21 07:33:30;;;;;;;34.30;21.57;;;0.20;99.90;;;;;;5105292;28;20548;-65
2022/11/21 07:35:57;;;;;;;33.60;20.10;;;0.10;99.90;;;;;;5105661;28;20453;-66
2022/11/21 07:38:24;;;;;;;30.83;19.80;;;0.10;99.90;;;;;;5104851;28;20486;-67
2022/11/21 07:40:51;;;;;;;34.60;20.20;;;0.10;99.90;;;;;;5105339;28;20449;-66
2022/11/21 07:43:18;;;;;;;33.90;21.00;;;0.10;99.90;;;;;;5105274;28;20442;-67
2022/11/21 07:45:45;;;;;;;31.60;20.47;;;0.20;99.90;;;;;;5103586;28;20489;-66
2022/11/21 07:48:13;;;;;;;36.37;23.50;;;0.20;99.90;;;;;;5104366;28;20449;-67
2022/11/21 07:50:40;;;;;;;35.57;22.30;;;0.20;99.90;;;;;;5104585;28;20481;-65
2022/11/21 07:53:10;;;;;;;37.27;22.87;;;0.30;99.90;;;;;;5104375;28;20554;-65
2022/11/21 07:55:37;;;;;;;33.60;22.40;;;0.30;99.90;;;;;;5104183;28;20457;-66
2022/11/21 07:58:06;;;;;;;39.17;20.50;;;0.40;99.90;;;;;;5104946;28;21075;-66
2022/11/21 08:00:35;;;;;;;36.53;22.73;;;0.50;99.90;;;;;;5104429;28;20487;-66
2022/11/21 08:03:03;;;;;;;38.63;21.50;;;0.50;99.90;;;;;;5104536;28;20449;-67
2022/11/21 08:05:32;;;;;;;39.13;22.80;;;0.60;99.90;;;;;;5106032;28;20457;-68
2022/11/21 08:07:58;;;;;;;33.43;21.87;;;0.60;99.90;;;;;;5104350;28;20798;-65
2022/11/21 08:10:25;;;;;;;36.50;21.70;;;0.60;99.90;;;;;;5099911;28;20453;-66
2022/11/21 08:12:52;;;;;;;40.53;23.97;;;0.70;99.90;;;;;;5097830;28;20496;-64
2022/11/21 08:15:19;;;;;;;34.83;21.10;;;0.80;99.90;;;;;;5097229;28;20918;-66
2022/11/21 08:17:46;;;;;;;31.77;19.27;;;0.80;99.90;;;;;;5097086;28;20453;-67
2022/11/21 08:20:14;;;;;;;36.00;20.87;;;0.80;99.90;;;;;;5097610;28;20901;-69
2022/11/21 08:22:42;;;;;;;35.87;19.57;;;0.70;99.90;;;;;;5096567;28;20493;-67
2022/11/21 08:25:10;;;;;;;31.17;19.33;;;0.70;99.90;;;;;;5096318;28;20563;-65
2022/11/21 08:27:38;;;;;;;31.27;19.87;;;0.70;99.90;;;;;;5096821;28;20446;-65
2022/11/21 08:30:07;;;;;;;31.57;19.83;;;0.70;99.90;;;;;;5096879;28;20453;-66
2022/11/21 08:32:34;;;;;;;30.47;18.57;;;0.70;99.90;;;;;;5096299;28;21056;-65
2022/11/21 08:35:01;;;;;;;31.63;19.50;;;0.70;99.90;;;;;;5096573;28;20523;-66
2022/11/21 08:37:29;;;;;;;32.63;19.37;;;0.80;99.90;;;;;;5096556;28;20457;-65
2022/11/21 08:39:59;;;;;;;30.20;18.60;;;0.70;99.90;;;;;;5096190;28;20480;-67
2022/11/21 08:42:26;;;;;;;39.83;20.80;;;0.60;99.90;;;;;;5096789;28;20774;-65
2022/11/21 08:44:53;;;;;;;34.10;19.50;;;0.60;99.90;;;;;;5097789;28;20549;-66
2022/11/21 08:47:20;;;;;;;31.37;19.37;;;0.60;99.90;;;;;;5097218;28;20458;-65
2022/11/21 08:49:48;;;;;;;33.40;19.43;;;0.60;99.90;;;;;;5096419;28;20525;-67
2022/11/21 08:52:16;;;;;;;31.47;18.90;;;0.60;99.90;;;;;;5096696;28;20549;-65
2022/11/21 08:54:44;;;;;;;33.37;18.70;;;0.50;99.90;;;;;;5096176;28;20993;-66
2022/11/21 08:57:12;;;;;;;37.97;20.90;;;0.50;99.90;;;;;;5096255;28;20909;-66
2022/11/21 08:59:39;;;;;;;37.87;21.33;;;0.50;99.90;;;;;;5096044;28;20453;-65
2022/11/21 09:02:09;;;;;;;39.07;20.80;;;0.40;99.90;;;;;;5095980;28;20605;-65
2022/11/21 09:04:36;;;;;;;41.93;20.50;;;0.40;99.90;;;;;;5096120;28;20782;-66
2022/11/21 09:07:03;;;;;;;34.90;19.60;;;0.40;99.90;;;;;;5095679;28;20458;-66
2022/11/21 09:09:30;;;;;;;34.13;17.90;;;0.30;99.90;;;;;;5096189;28;20489;-66
2022/11/21 09:11:57;;;;;;;33.27;19.80;;;0.20;99.90;;;;;;5096009;28;20965;-66
2022/11/21 09:19:57;;;;;;;35.10;18.13;;;0.20;99.90;;;;;;5096116;28;20429;-66
2022/11/21 09:22:24;;;;;;;29.90;17.93;;;0.20;99.90;;;;;;5099803;28;20487;-66
2022/11/21 09:24:51;;;;;;;34.43;18.10;;;0.20;99.90;;;;;;5102699;28;20552;-67
2022/11/21 09:27:18;;;;;;;35.83;16.70;;;0.10;99.90;;;;;;5098601;28;20438;-64
2022/11/21 09:29:46;;;;;;;33.47;17.13;;;0.10;99.90;;;;;;5096000;28;20548;-66
2022/11/21 09:32:13;;;;;;;28.87;15.40;;;0.00;99.90;;;;;;5095772;28;20541;-64
2022/11/21 09:34:40;;;;;;;35.87;15.67;;;-0.10;99.90;;;;;;5095400;28;20524;-66
2022/11/21 09:37:07;;;;;;;31.33;17.20;;;-0.20;99.90;;;;;;5095629;28;20980;-65
2022/11/21 09:39:34;;;;;;;37.20;17.43;;;-0.30;99.90;;;;;;5095661;28;20544;-64
2022/11/21 09:42:18;;;;;;;25.70;13.50;;;-0.30;99.90;;;;;;5095485;28;20525;-66
2022/11/21 09:44:59;;;;;;;26.30;13.10;;;-0.40;99.90;;;;;;5095447;28;20612;-65
2022/11/21 09:47:28;;;;;;;23.00;12.53;;;-0.60;99.90;;;;;;5095228;28;20475;-66
2022/11/21 09:50:01;;;;;;;26.80;14.53;;;-0.60;99.90;;;;;;5095001;28;20487;-65
2022/11/21 09:52:36;;;;;;;23.83;13.83;;;-0.60;99.90;;;;;;5096109;28;20751;-64
2022/11/21 09:55:07;;;;;;;28.77;14.87;;;-0.60;99.90;;;;;;5094920;28;20469;-65
2022/11/21 09:57:35;;;;;;;34.20;16.97;;;-0.60;99.90;;;;;;5095468;28;20446;-65
2022/11/21 10:00:14;;;;;;;23.30;14.80;;;-0.60;99.90;;;;;;5095305;28;20564;-67
2022/11/21 10:02:41;;;;;;;32.10;15.90;;;-0.60;99.90;;;;;;5095529;28;20541;-65
2022/11/21 10:05:13;;;;;;;22.90;14.00;;;-0.60;99.90;;;;;;5095600;28;20492;-65
2022/11/21 10:07:42;;;;;;;25.53;14.37;;;-0.50;99.90;;;;;;5095610;28;20547;-65
2022/11/21 10:10:20;;;;;;;25.70;15.07;;;-0.60;99.90;;;;;;5095739;28;20456;-65
2022/11/21 10:13:02;;;;;;;26.40;15.73;;;-0.60;99.90;;;;;;5095616;28;20499;-65
2022/11/21 10:15:44;;;;;;;28.17;14.30;;;-0.50;99.90;;;;;;5095504;28;20556;-65
2022/11/21 10:18:36;;;;;;;26.00;14.23;;;-0.50;99.90;;;;;;5095386;28;20487;-65
2022/11/21 10:21:17;;;;;;;22.77;12.90;;;-0.50;99.90;;;;;;5095700;28;20536;-65
2022/11/21 10:24:03;;;;;;;22.00;12.50;;;-0.50;99.90;;;;;;5095719;28;20479;-65
2022/11/21 10:26:40;;;;;;;23.23;13.80;;;-0.50;99.90;;;;;;5095384;28;20520;-66
2022/11/21 10:29:15;;;;;;;25.23;12.33;;;-0.40;99.90;;;;;;5095117;28;20527;-66
2022/11/21 10:31:43;;;;;;;25.90;13.47;;;-0.50;99.90;;;;;;5097622;28;20526;-66
2022/11/21 10:34:13;;;;;;;25.17;13.47;;;-0.60;99.90;;;;;;5099800;28;20846;-66
2022/11/21 10:36:43;;;;;;;22.73;14.50;;;-0.60;99.90;;;;;;5100040;28;20461;-66
2022/11/21 10:39:18;;;;;;;20.63;12.13;;;-0.60;99.90;;;;;;5100227;28;20461;-65
2022/11/21 10:41:51;;;;;;;21.93;12.57;;;-0.60;99.90;;;;;;5100558;28;20472;-66
2022/11/21 10:47:26;;;;;;;17.60;11.30;;;-0.50;99.90;;;;;;5099400;28;20514;-66
2022/11/21 10:49:59;;;;;;;18.80;10.67;;;-0.60;99.90;;;;;;5098619;28;20441;-65
2022/11/21 10:52:29;;;;;;;20.20;11.00;;;-0.60;99.90;;;;;;5099013;28;20488;-65
2022/11/21 10:55:11;;;;;;;17.60;10.00;;;-0.60;99.90;;;;;;5098663;28;20506;-65
2022/11/21 10:57:43;;;;;;;21.70;10.77;;;-0.70;99.90;;;;;;5098648;28;20510;-66
2022/11/21 11:00:21;;;;;;;17.53;10.17;;;-0.70;99.90;;;;;;5098763;28;20528;-66
2022/11/21 11:03:05;;;;;;;16.00;10.53;;;-0.70;99.90;;;;;;5098238;28;20446;-66
2022/11/21 11:05:35;;;;;;;19.23;11.20;;;-0.70;99.90;;;;;;5096784;28;20453;-65
2022/11/21 11:08:05;;;;;;;18.90;11.27;;;-0.80;99.90;;;;;;5098140;28;20450;-65
2022/11/21 11:10:33;;;;;;;21.73;11.00;;;-0.80;99.90;;;;;;5098535;28;20464;-67
2022/11/21 11:16:01;;;;;;;20.03;12.43;;;-0.70;99.90;;;;;;5098330;28;20468;-65
2022/11/21 11:18:30;;;;;;;15.57;10.13;;;-0.70;99.90;;;;;;5098367;28;20520;-65
2022/11/21 11:21:20;;;;;;;17.50;11.00;;;-0.70;99.90;;;;;;5098476;28;20535;-66
2022/11/21 11:23:49;;;;;;;16.23;11.30;;;-0.70;99.90;;;;;;5098239;28;20438;-66
2022/11/21 11:26:27;;;;;;;17.47;10.77;;;-0.60;99.90;;;;;;5098003;28;20572;-67
2022/11/21 11:29:08;;;;;;;16.70;11.00;;;-0.40;99.90;;;;;;5097924;28;20454;-66
2022/11/21 11:31:41;;;;;;;19.30;11.43;;;-0.30;99.90;;;;;;5098841;28;20874;-65
2022/11/21 11:34:13;;;;;;;21.30;10.13;;;-0.30;99.90;;;;;;5099591;28;20461;-65
2022/11/21 11:36:53;;;;;;;17.70;10.80;;;-0.30;99.90;;;;;;5097831;28;20480;-66
2022/11/21 11:39:37;;;;;;;23.07;12.50;;;-0.30;99.90;;;;;;5097935;28;20468;-66
2022/11/21 11:48:01;;;;;;;18.13;12.20;;;-0.20;99.90;;;;;;5097842;28;20975;-65
2022/11/21 11:50:34;;;;;;;15.27;10.00;;;-0.10;99.90;;;;;;5097084;28;20534;-66
2022/11/21 11:53:07;;;;;;;18.20;11.13;;;-0.10;99.90;;;;;;5097351;28;20438;-65
2022/11/21 11:55:40;;;;;;;24.67;13.30;;;0.00;99.90;;;;;;5097233;28;20556;-66
2022/11/21 11:58:14;;;;;;;25.03;14.47;;;0.00;99.90;;;;;;5096970;28;20524;-65
2022/11/21 12:00:46;;;;;;;30.20;16.00;;;0.20;99.90;;;;;;5097633;28;20533;-65
2022/11/21 12:03:18;;;;;;;28.87;16.80;;;0.30;99.90;;;;;;5097308;28;20488;-66
2022/11/21 12:05:56;;;;;;;26.90;17.13;;;0.30;99.90;;;;;;5097552;28;20434;-65
2022/11/21 12:08:33;;;;;;;32.50;17.67;;;0.30;99.90;;;;;;5099407;28;20479;-65
2022/11/21 12:13:57;;;;;;;28.13;16.20;;;0.30;99.90;;;;;;5099430;28;20467;-64
2022/11/21 12:16:25;;;;;;;27.40;16.20;;;0.30;99.90;;;;;;5098271;28;20477;-65
2022/11/21 12:18:56;;;;;;;28.43;17.80;;;0.30;99.90;;;;;;5097263;28;20514;-66
2022/11/21 12:21:24;;;;;;;27.13;15.80;;;0.30;99.90;;;;;;5097693;28;20820;-64
2022/11/21 12:23:53;;;;;;;28.20;16.30;;;0.40;99.90;;;;;;5097579;28;20787;-66
2022/11/21 12:26:47;;;;;;;24.07;16.40;;;0.40;99.90;;;;;;5096831;28;20540;-64
2022/11/21 12:29:25;;;;;;;26.07;16.70;;;0.40;99.90;;;;;;5097106;28;20476;-66
2022/11/21 12:32:08;;;;;;;27.10;17.03;;;0.40;99.90;;;;;;5096730;28;20533;-66
2022/11/21 12:34:49;;;;;;;23.53;16.23;;;0.40;99.90;;;;;;5097260;28;20481;-65
2022/11/21 12:37:30;;;;;;;20.77;15.10;;;0.30;99.90;;;;;;5096165;28;20438;-64
2022/11/21 12:40:00;;;;;;;31.30;15.80;;;0.30;99.90;;;;;;5096353;28;20442;-66
2022/11/21 12:42:49;;;;;;;23.17;15.70;;;0.30;99.90;;;;;;5096290;28;20594;-65
2022/11/21 12:45:31;;;;;;;26.20;16.43;;;0.30;99.90;;;;;;5096226;28;20520;-65
2022/11/21 12:54:32;;;;;;;25.90;16.30;;;0.40;99.90;;;;;;5073044;28;20772;-64
2022/11/21 12:57:10;;;;;;;20.40;13.97;;;0.30;99.90;;;;;;5096324;28;20877;-65
2022/11/21 12:59:52;;;;;;;16.60;11.37;;;0.20;99.90;;;;;;5096360;28;20441;-66
2022/11/21 13:02:38;;;;;;;18.37;11.97;;;0.20;99.90;;;;;;5097754;28;20516;-65
2022/11/21 13:05:10;;;;;;;21.23;14.30;;;0.20;99.90;;;;;;5097962;28;20517;-65
2022/11/21 13:07:38;;;;;;;17.90;12.73;;;0.20;99.90;;;;;;5097976;28;20442;-66
2022/11/21 13:10:14;;;;;;;21.80;13.30;;;0.20;99.90;;;;;;5097062;28;20540;-65
2022/11/21 13:12:47;;;;;;;18.73;12.20;;;0.20;99.90;;;;;;5095778;28;20572;-65
2022/11/21 13:15:21;;;;;;;22.67;14.10;;;0.30;99.90;;;;;;5095942;28;20544;-65
2022/11/21 13:17:54;;;;;;;21.27;12.63;;;0.20;99.90;;;;;;5096078;28;20442;-66
2022/11/21 13:20:26;;;;;;;17.43;12.57;;;0.20;99.90;;;;;;5095591;28;20494;-65
2022/11/21 13:22:58;;;;;;;21.30;15.13;;;0.20;99.90;;;;;;5095808;28;20470;-64